createdAt,value
2023-02-22T00:00:48.722Z,7.10
2023-02-22T00:03:34.753Z,7.00
2023-02-22T00:06:04.948Z,7.00
2023-02-22T00:08:35.464Z,6.90
2023-02-22T00:11:08.494Z,6.90
2023-02-22T00:13:36.702Z,6.90
2023-02-22T00:16:04.073Z,6.90
2023-02-22T00:18:30.911Z,6.90
2023-02-22T00:20:59.963Z,6.90
2023-02-22T00:23:29.853Z,6.90
2023-02-22T00:25:58.276Z,6.90
2023-02-22T00:28:25.564Z,6.90
2023-02-22T00:30:54.619Z,7.00
2023-02-22T00:33:21.573Z,7.00
2023-02-22T00:35:48.375Z,7.00
2023-02-22T00:38:17.384Z,7.00
2023-02-22T00:40:45.309Z,7.00
2023-02-22T00:43:12.454Z,6.90
2023-02-22T00:45:40.977Z,6.90
2023-02-22T00:48:08.965Z,6.90
2023-02-22T00:50:36.513Z,6.90
2023-02-22T00:53:04.877Z,6.90
2023-02-22T00:55:35.216Z,6.80
2023-02-22T00:58:02.952Z,6.70
2023-02-22T01:00:32.683Z,6.70
2023-02-22T01:03:00.045Z,6.70
2023-02-22T01:05:29.134Z,6.70
2023-02-22T01:07:57.656Z,6.70
2023-02-22T01:10:27.279Z,6.70
2023-02-22T01:12:55.081Z,6.70
2023-02-22T01:15:24.397Z,6.80
2023-02-22T01:17:53.431Z,6.80
2023-02-22T01:20:29.121Z,6.80
2023-02-22T01:22:58.741Z,6.70
2023-02-22T01:25:28.889Z,6.70
2023-02-22T01:27:56.561Z,6.60
2023-02-22T01:30:26.594Z,6.60
2023-02-22T01:32:53.879Z,6.70
2023-02-22T01:35:24.096Z,6.70
2023-02-22T01:37:51.058Z,6.60
2023-02-22T01:40:25.300Z,6.60
2023-02-22T01:42:53.677Z,6.60
2023-02-22T01:45:43.010Z,6.60
2023-02-22T01:48:33.522Z,6.60
2023-02-22T01:51:12.585Z,6.60
2023-02-22T01:53:56.905Z,6.60
2023-02-22T01:56:26.727Z,6.80
2023-02-22T01:59:06.649Z,6.60
2023-02-22T02:01:34.821Z,6.60
2023-02-22T02:04:05.944Z,6.60
2023-02-22T02:06:34.602Z,6.60
2023-02-22T02:09:13.326Z,6.60
2023-02-22T02:11:41.713Z,6.60
2023-02-22T02:14:10.214Z,6.50
2023-02-22T02:16:46.918Z,6.50
2023-02-22T02:19:53.576Z,6.70
2023-02-22T02:23:10.937Z,6.60
2023-02-22T02:26:04.240Z,6.60
2023-02-22T02:29:14.675Z,6.60
2023-02-22T02:31:56.930Z,6.70
2023-02-22T02:34:41.353Z,6.60
2023-02-22T02:37:26.960Z,6.50
2023-02-22T02:40:17.672Z,6.40
2023-02-22T02:43:13.973Z,6.40
2023-02-22T02:46:12.939Z,6.50
2023-02-22T02:48:47.922Z,6.50
2023-02-22T02:51:16.422Z,6.50
2023-02-22T02:53:47.988Z,6.50
2023-02-22T02:56:14.754Z,6.40
2023-02-22T02:58:50.176Z,6.40
2023-02-22T03:02:01.150Z,6.50
2023-02-22T03:04:48.908Z,6.50
2023-02-22T03:07:29.495Z,6.40
2023-02-22T03:10:27.778Z,6.40
2023-02-22T03:13:19.636Z,6.40
2023-02-22T03:16:07.188Z,6.40
2023-02-22T03:19:04.629Z,6.50
2023-02-22T03:21:51.483Z,6.50
2023-02-22T03:24:27.445Z,6.50
2023-02-22T03:27:02.873Z,6.50
2023-02-22T03:29:35.484Z,6.60
2023-02-22T03:32:08.484Z,6.60
2023-02-22T03:34:59.187Z,6.60
2023-02-22T03:37:34.046Z,6.70
2023-02-22T03:40:13.916Z,6.70
2023-02-22T03:42:59.154Z,6.70
2023-02-22T03:45:28.832Z,6.50
2023-02-22T03:48:16.425Z,6.40
2023-02-22T03:50:43.806Z,6.30
2023-02-22T03:53:10.855Z,6.30
2023-02-22T03:55:40.804Z,6.30
2023-02-22T03:58:11.923Z,6.20
2023-02-22T04:00:39.382Z,6.20
2023-02-22T04:03:06.535Z,6.20
2023-02-22T04:05:33.436Z,6.30
2023-02-22T04:08:00.180Z,6.30
2023-02-22T04:10:27.661Z,6.30
2023-02-22T04:12:54.478Z,6.30
2023-02-22T04:15:23.940Z,6.40
2023-02-22T04:17:55.379Z,6.40
2023-02-22T04:20:25.440Z,6.40
2023-02-22T04:22:56.445Z,6.60
2023-02-22T04:25:24.236Z,6.40
2023-02-22T04:27:52.394Z,6.40
2023-02-22T04:30:23.877Z,6.30
2023-02-22T04:32:50.779Z,6.30
2023-02-22T04:35:21.061Z,6.30
2023-02-22T04:37:47.888Z,6.20
2023-02-22T04:40:16.874Z,6.20
2023-02-22T04:42:43.849Z,6.20
2023-02-22T04:45:11.400Z,6.20
2023-02-22T04:47:39.240Z,6.20
2023-02-22T04:50:09.270Z,6.20
2023-02-22T04:52:36.026Z,6.10
2023-02-22T04:55:04.716Z,6.20
2023-02-22T04:57:32.529Z,6.10
2023-02-22T04:59:59.574Z,6.10
2023-02-22T08:30:05.798Z,7.10
2023-02-22T08:32:32.754Z,7.20
2023-02-22T08:34:59.533Z,7.20
2023-02-22T08:37:26.334Z,7.20
2023-02-22T08:39:53.781Z,7.20
2023-02-22T08:42:20.567Z,7.20
2023-02-22T08:44:47.215Z,7.30
2023-02-22T08:47:14.010Z,7.20
2023-02-22T08:49:42.033Z,7.30
2023-02-22T08:52:09.132Z,7.30
2023-02-22T08:54:35.933Z,7.40
2023-02-22T08:57:02.770Z,7.40
2023-02-22T08:59:29.794Z,7.50
2023-02-22T09:01:56.577Z,7.50
2023-02-22T09:04:23.284Z,7.60
2023-02-22T09:06:51.799Z,7.70
2023-02-22T09:09:21.295Z,7.80
2023-02-22T09:11:52.941Z,7.80
2023-02-22T09:14:20.094Z,7.90
2023-02-22T09:16:46.869Z,7.90
2023-02-22T09:19:13.745Z,7.90
2023-02-22T09:21:40.481Z,7.90
2023-02-22T09:24:10.574Z,7.90
2023-02-22T09:26:45.980Z,7.90
2023-02-22T09:29:13.064Z,7.90
2023-02-22T09:31:41.198Z,7.80
2023-02-22T09:34:13.686Z,7.90
2023-02-22T09:36:44.092Z,7.80
2023-02-22T09:39:11.310Z,7.90
2023-02-22T09:42:05.555Z,8.00
2023-02-22T09:44:55.056Z,8.00
2023-02-22T09:47:40.010Z,8.10
2023-02-22T09:50:15.791Z,8.20
2023-02-22T09:52:54.624Z,8.40
2023-02-22T09:55:53.913Z,8.50
2023-02-22T09:58:33.358Z,8.70
2023-02-22T10:01:26.951Z,8.80
2023-02-22T10:04:22.002Z,9.00
2023-02-22T10:07:14.850Z,9.00
2023-02-22T10:09:43.472Z,9.00
2023-02-22T10:12:14.969Z,9.00
2023-02-22T10:15:04.661Z,9.10
2023-02-22T10:17:44.248Z,9.40
2023-02-22T10:20:14.549Z,9.50
2023-02-22T10:23:38.152Z,9.70
2023-02-22T10:26:36.747Z,9.80
2023-02-22T10:29:25.196Z,10.00
2023-02-22T10:31:57.354Z,10.00
2023-02-22T10:34:26.821Z,10.10
2023-02-22T10:37:13.852Z,10.00
2023-02-22T10:39:43.105Z,10.00
2023-02-22T10:42:10.899Z,10.10
2023-02-22T10:44:39.218Z,10.30
2023-02-22T10:47:10.135Z,10.50
2023-02-22T10:49:42.279Z,10.70
2023-02-22T10:52:23.649Z,10.80
2023-02-22T10:54:58.827Z,11.10
2023-02-22T10:57:33.771Z,11.10
2023-02-22T11:00:19.507Z,11.10
2023-02-22T11:02:58.887Z,11.10
2023-02-22T11:05:37.908Z,11.00
2023-02-22T11:08:28.828Z,10.90
2023-02-22T11:10:59.671Z,10.90
2023-02-22T11:13:38.288Z,10.90
2023-02-22T11:16:41.826Z,10.90
2023-02-22T11:19:25.560Z,11.00
2023-02-22T11:21:56.922Z,11.10
2023-02-22T11:24:30.417Z,11.30
2023-02-22T11:27:07.859Z,11.50
2023-02-22T11:29:37.094Z,11.60
2023-02-22T11:32:20.975Z,11.70
2023-02-22T11:34:52.831Z,11.70
2023-02-22T11:37:25.817Z,11.70
2023-02-22T11:40:19.894Z,11.70
2023-02-22T11:42:47.989Z,11.70
2023-02-22T11:45:21.109Z,11.70
2023-02-22T11:47:49.623Z,11.80
2023-02-22T11:50:44.101Z,11.80
2023-02-22T11:53:21.926Z,11.90
2023-02-22T11:56:10.479Z,11.80
2023-02-22T11:58:59.848Z,11.80
2023-02-22T12:01:29.632Z,11.70
2023-02-22T12:04:26.327Z,11.80
2023-02-22T12:06:59.096Z,11.70
2023-02-22T12:09:43.289Z,11.70
2023-02-22T12:12:32.646Z,11.80
2023-02-22T12:15:20.951Z,11.80
2023-02-22T12:18:00.546Z,11.90
2023-02-22T12:20:47.995Z,12.00
2023-02-22T12:23:23.751Z,12.20
2023-02-22T12:25:58.595Z,12.40
2023-02-22T12:28:31.624Z,12.50
2023-02-22T12:31:07.488Z,12.40
2023-02-22T12:33:48.792Z,12.50
2023-02-22T12:36:18.906Z,12.60
2023-02-22T12:38:54.409Z,12.60
2023-02-22T12:41:43.815Z,12.70
2023-02-22T12:44:26.119Z,12.70
2023-02-22T12:46:56.634Z,12.70
2023-02-22T12:49:44.385Z,12.80
2023-02-22T12:52:41.647Z,12.70
2023-02-22T12:55:21.152Z,12.80
2023-02-22T12:58:18.293Z,12.80
2023-02-22T13:00:50.494Z,12.80
2023-02-22T13:03:35.459Z,12.80
2023-02-22T13:06:25.782Z,12.70
2023-02-22T13:09:30.218Z,12.60
2023-02-22T13:11:59.974Z,12.60
2023-02-22T13:14:30.033Z,12.50
2023-02-22T13:17:24.495Z,12.60
2023-02-22T13:20:10.011Z,12.50
2023-02-22T13:22:45.043Z,12.60
2023-02-22T13:25:26.042Z,12.60
2023-02-22T13:28:07.358Z,12.60
2023-02-22T13:30:45.780Z,12.60
2023-02-22T13:33:39.624Z,12.60
2023-02-22T13:36:51.344Z,12.50
2023-02-22T13:39:39.631Z,12.30
2023-02-22T13:42:31.904Z,12.20
2023-02-22T13:45:20.176Z,12.10
2023-02-22T13:48:00.238Z,12.10
2023-02-22T13:50:54.624Z,12.00
2023-02-22T13:53:28.899Z,12.00
2023-02-22T13:55:58.468Z,11.90
2023-02-22T13:58:25.706Z,11.90
2023-02-22T14:00:58.187Z,11.90
2023-02-22T14:03:36.031Z,11.80
2023-02-22T14:06:07.565Z,11.80
2023-02-22T14:08:34.350Z,11.80
2023-02-22T14:11:06.528Z,11.80
2023-02-22T14:13:55.076Z,11.80
2023-02-22T14:16:27.793Z,11.70
2023-02-22T14:19:06.492Z,11.70
2023-02-22T14:21:35.197Z,11.70
2023-02-22T14:24:12.665Z,11.60
2023-02-22T14:26:40.749Z,11.60
2023-02-22T14:29:10.168Z,11.60
2023-02-22T14:31:52.071Z,11.60
2023-02-22T14:34:39.893Z,11.60
2023-02-22T14:37:12.656Z,11.50
2023-02-22T14:39:43.382Z,11.50
2023-02-22T14:42:28.159Z,11.60
2023-02-22T14:45:14.616Z,11.50
2023-02-22T14:48:20.525Z,11.50
2023-02-22T14:50:54.302Z,11.40
2023-02-22T14:53:41.273Z,11.30
2023-02-22T14:56:15.743Z,11.20
2023-02-22T14:58:52.094Z,11.20
2023-02-22T15:01:20.032Z,11.10
2023-02-22T15:03:49.714Z,11.10
2023-02-22T15:06:23.529Z,11.10
2023-02-22T15:09:11.625Z,10.90
2023-02-22T15:11:38.639Z,10.80
2023-02-22T15:14:25.662Z,10.70
2023-02-22T15:16:58.643Z,10.60
2023-02-22T15:19:28.584Z,10.60
2023-02-22T15:21:58.304Z,10.60
2023-02-22T15:24:28.810Z,10.60
2023-02-22T15:27:04.967Z,10.50
2023-02-22T15:29:40.815Z,10.50
2023-02-22T15:32:30.602Z,10.40
2023-02-22T15:35:17.658Z,10.40
2023-02-22T15:37:45.616Z,10.30
2023-02-22T15:40:16.190Z,10.30
2023-02-22T15:42:48.706Z,10.30
2023-02-22T15:45:19.939Z,10.20
2023-02-22T15:47:49.434Z,10.20
2023-02-22T15:50:26.558Z,10.20
2023-02-22T15:52:59.930Z,10.30
2023-02-22T15:55:39.837Z,10.30
2023-02-22T15:58:18.461Z,10.20
2023-02-22T16:00:50.801Z,10.20
2023-02-22T16:03:28.487Z,10.20
2023-02-22T16:05:56.917Z,10.20
2023-02-22T16:08:43.017Z,10.30
2023-02-22T16:11:38.301Z,10.30
2023-02-22T16:14:22.493Z,10.30
2023-02-22T16:16:49.600Z,10.20
2023-02-22T16:19:31.312Z,10.30
2023-02-22T16:22:03.026Z,10.20
2023-02-22T16:24:35.394Z,10.10
2023-02-22T16:27:23.021Z,10.20
2023-02-22T16:30:23.378Z,10.30
2023-02-22T16:32:51.777Z,10.20
2023-02-22T16:35:18.764Z,10.20
2023-02-22T16:37:51.243Z,10.20
2023-02-22T16:40:26.046Z,10.20
2023-02-22T16:42:52.845Z,10.20
2023-02-22T16:45:20.938Z,10.20
2023-02-22T16:47:51.515Z,10.20
2023-02-22T16:50:18.333Z,10.20
2023-02-22T16:52:45.197Z,10.20
2023-02-22T16:55:14.190Z,10.20
2023-02-22T16:57:43.075Z,10.20
2023-02-22T17:00:30.921Z,10.20
2023-02-22T17:03:05.926Z,10.20
2023-02-22T17:05:36.300Z,10.20
2023-02-22T17:08:06.335Z,10.20
2023-02-22T17:10:34.072Z,10.20
2023-02-22T17:13:12.836Z,10.10
2023-02-22T17:15:47.368Z,10.20
2023-02-22T17:18:19.311Z,10.20
2023-02-22T17:20:46.112Z,10.10
2023-02-22T17:23:13.072Z,10.10
2023-02-22T17:25:39.826Z,10.10
2023-02-22T17:28:07.298Z,10.20
2023-02-22T17:30:35.867Z,10.20
2023-02-22T17:33:05.281Z,10.10
2023-02-22T17:35:39.597Z,10.10
2023-02-22T17:38:06.675Z,10.10
2023-02-22T17:40:35.498Z,10.00
2023-02-22T17:43:02.624Z,10.00
2023-02-22T17:45:29.916Z,10.00
2023-02-22T17:47:59.358Z,10.10
2023-02-22T17:50:26.575Z,10.00
2023-02-22T17:52:53.423Z,10.10
2023-02-22T17:55:21.597Z,10.10
2023-02-22T17:57:52.672Z,10.10
2023-02-22T18:00:32.924Z,10.10
2023-02-22T18:03:07.094Z,10.10
2023-02-22T18:05:47.151Z,10.10
2023-02-22T18:08:15.201Z,10.10
2023-02-22T18:10:43.623Z,10.20
2023-02-22T18:13:14.244Z,10.20
2023-02-22T18:15:41.063Z,10.20
2023-02-22T18:18:07.897Z,10.30
2023-02-22T18:20:43.277Z,10.10
2023-02-22T18:23:16.166Z,10.10
2023-02-22T18:26:07.642Z,10.10
2023-02-22T18:28:36.723Z,10.10
2023-02-22T18:31:15.637Z,10.10
2023-02-22T18:33:48.017Z,10.10
2023-02-22T18:36:16.149Z,10.10
2023-02-22T18:38:44.476Z,10.10
2023-02-22T18:41:14.026Z,10.10
2023-02-22T18:43:41.051Z,10.10
2023-02-22T18:46:18.337Z,10.10
2023-02-22T18:48:46.786Z,10.10
2023-02-22T18:51:17.202Z,10.10
2023-02-22T18:53:47.564Z,10.00
2023-02-22T18:56:21.349Z,10.00
2023-02-22T18:58:48.042Z,10.00
2023-02-22T19:01:16.981Z,10.00
2023-02-22T19:03:47.051Z,10.00
2023-02-22T19:06:14.377Z,10.00
2023-02-22T19:08:42.537Z,10.00
2023-02-22T19:11:21.676Z,10.00
2023-02-22T19:13:51.313Z,10.00
2023-02-22T19:16:21.622Z,10.00
2023-02-22T19:18:52.261Z,10.10
2023-02-22T19:21:20.011Z,10.00
2023-02-22T19:23:47.941Z,10.00
2023-02-22T19:26:23.917Z,10.00
2023-02-22T19:28:52.616Z,10.00
2023-02-22T19:31:33.229Z,10.00
2023-02-22T19:34:09.860Z,10.00
2023-02-22T19:36:48.001Z,10.00
2023-02-22T19:39:16.756Z,10.00
2023-02-22T19:41:43.848Z,10.00
2023-02-22T19:44:10.920Z,10.00
2023-02-22T19:46:43.236Z,10.00
2023-02-22T19:49:10.063Z,10.00
2023-02-22T19:51:37.523Z,10.00
2023-02-22T19:54:07.165Z,10.00
2023-02-22T19:56:35.377Z,10.00
2023-02-22T19:59:13.629Z,10.00
2023-02-22T20:01:44.046Z,10.00
2023-02-22T20:04:17.654Z,10.10
2023-02-22T20:06:45.119Z,10.10
2023-02-22T20:09:16.629Z,10.10
2023-02-22T20:11:45.028Z,10.00
2023-02-22T20:14:23.121Z,10.00
2023-02-22T20:16:54.876Z,10.00
2023-02-22T20:19:24.638Z,10.00
2023-02-22T20:21:55.690Z,10.00
2023-02-22T20:24:23.693Z,10.00
2023-02-22T20:26:51.060Z,10.00
2023-02-22T20:29:18.030Z,10.00
2023-02-22T20:31:49.155Z,10.00
2023-02-22T20:34:15.937Z,10.10
2023-02-22T20:36:42.737Z,10.00
2023-02-22T20:39:15.788Z,10.00
2023-02-22T20:41:44.377Z,10.10
2023-02-22T20:44:14.140Z,10.10
2023-02-22T20:46:41.518Z,10.00
2023-02-22T20:49:11.148Z,10.10
2023-02-22T20:51:40.258Z,10.10
2023-02-22T20:54:11.443Z,10.10
2023-02-22T20:56:40.671Z,10.10
2023-02-22T20:59:08.633Z,10.10
2023-02-22T21:01:35.976Z,10.10
2023-02-22T21:04:06.164Z,10.00
2023-02-22T21:06:36.839Z,10.10
2023-02-22T21:09:08.784Z,10.00
2023-02-22T21:11:36.140Z,10.00
2023-02-22T21:14:03.614Z,10.10
2023-02-22T21:16:33.464Z,10.00
2023-02-22T21:19:02.699Z,10.00
2023-02-22T21:21:30.728Z,10.00
2023-02-22T21:24:02.255Z,10.00
2023-02-22T21:26:32.888Z,10.00
2023-02-22T21:29:04.868Z,10.00
2023-02-22T21:31:33.123Z,10.00
2023-02-22T21:34:01.282Z,10.10
2023-02-22T21:36:28.920Z,10.00
2023-02-22T21:39:00.762Z,10.00
2023-02-22T21:41:30.360Z,10.00
2023-02-22T21:43:58.906Z,10.00
2023-02-22T21:46:29.544Z,10.00
2023-02-22T21:48:59.029Z,10.00
2023-02-22T21:51:32.033Z,10.00
2023-02-22T21:54:01.520Z,10.00
2023-02-22T21:56:31.332Z,10.00
2023-02-22T21:59:03.403Z,10.00
2023-02-22T22:01:33.211Z,10.00
2023-02-22T22:04:01.708Z,10.00
2023-02-22T22:06:30.166Z,10.00
2023-02-22T22:08:59.651Z,10.00
2023-02-22T22:11:26.558Z,10.00
2023-02-22T22:13:57.363Z,10.00
2023-02-22T22:16:27.128Z,10.00
2023-02-22T22:18:55.323Z,10.10
2023-02-22T22:21:23.857Z,10.00
2023-02-22T22:23:55.692Z,10.00
2023-02-22T22:26:24.530Z,10.00
2023-02-22T22:28:55.793Z,10.00
2023-02-22T22:31:24.769Z,10.00
2023-02-22T22:33:52.623Z,10.00
2023-02-22T22:36:21.665Z,10.00
2023-02-22T22:38:49.038Z,10.20
2023-02-22T22:41:18.821Z,10.00
2023-02-22T22:43:46.239Z,10.10
2023-02-22T22:46:17.924Z,10.00
2023-02-22T22:48:47.234Z,10.00
2023-02-22T22:51:21.901Z,9.90
2023-02-22T22:53:50.524Z,10.00
2023-02-22T22:56:20.466Z,10.00
2023-02-22T22:58:52.886Z,10.00
2023-02-22T23:01:26.726Z,10.00
2023-02-22T23:04:01.833Z,10.00
2023-02-22T23:06:32.674Z,10.00
2023-02-22T23:09:13.885Z,9.80
2023-02-22T23:11:46.155Z,9.80
2023-02-22T23:14:21.692Z,9.90
2023-02-22T23:16:50.684Z,10.00
2023-02-22T23:19:19.089Z,10.00
2023-02-22T23:21:49.752Z,10.00
2023-02-22T23:24:19.773Z,10.00
2023-02-22T23:26:49.554Z,10.00
2023-02-22T23:29:21.930Z,9.90
2023-02-22T23:31:50.279Z,10.00
2023-02-22T23:34:21.436Z,10.00
2023-02-22T23:36:49.766Z,9.90
2023-02-22T23:39:20.507Z,9.90
2023-02-22T23:41:55.001Z,9.90
2023-02-22T23:44:22.372Z,9.90
2023-02-22T23:46:55.641Z,9.90
2023-02-22T23:49:23.251Z,9.90
2023-02-22T23:51:51.164Z,9.90
2023-02-22T23:54:19.998Z,9.90
2023-02-22T23:56:56.138Z,9.90
2023-02-22T23:59:27.305Z,9.90
